sensor_id;sensor_type;location;lat;lon;timestamp;temperature;humidity
3770;DHT22;1900;48.890;9.190;2023-05-10T00:00:20;20.60;63.40
3770;DHT22;1900;48.890;9.190;2023-05-10T00:02:48;20.60;63.50
3770;DHT22;1900;48.890;9.190;2023-05-10T00:05:14;20.60;63.60
3770;DHT22;1900;48.890;9.190;2023-05-10T00:07:40;20.60;63.50
3770;DHT22;1900;48.890;9.190;2023-05-10T00:10:06;20.60;63.50
3770;DHT22;1900;48.890;9.190;2023-05-10T00:12:32;20.60;63.50
3770;DHT22;1900;48.890;9.190;2023-05-10T00:14:57;20.60;63.40
3770;DHT22;1900;48.890;9.190;2023-05-10T00:17:23;20.50;63.10
3770;DHT22;1900;48.890;9.190;2023-05-10T00:19:49;20.50;63.10
3770;DHT22;1900;48.890;9.190;2023-05-10T00:22:14;20.40;63.10
3770;DHT22;1900;48.890;9.190;2023-05-10T00:24:40;20.40;63.00
3770;DHT22;1900;48.890;9.190;2023-05-10T00:27:06;20.40;62.90
3770;DHT22;1900;48.890;9.190;2023-05-10T00:29:31;20.40;62.90
3770;DHT22;1900;48.890;9.190;2023-05-10T00:31:58;20.30;62.80
3770;DHT22;1900;48.890;9.190;2023-05-10T00:34:24;20.30;62.90
3770;DHT22;1900;48.890;9.190;2023-05-10T00:36:55;20.30;62.90
3770;DHT22;1900;48.890;9.190;2023-05-10T00:39:21;20.30;63.00
3770;DHT22;1900;48.890;9.190;2023-05-10T00:41:47;20.30;63.00
3770;DHT22;1900;48.890;9.190;2023-05-10T00:44:12;20.20;63.50
3770;DHT22;1900;48.890;9.190;2023-05-10T00:46:38;20.20;62.80
3770;DHT22;1900;48.890;9.190;2023-05-10T00:49:04;20.20;62.80
3770;DHT22;1900;48.890;9.190;2023-05-10T00:51:33;20.20;62.80
3770;DHT22;1900;48.890;9.190;2023-05-10T00:53:59;20.20;62.90
3770;DHT22;1900;48.890;9.190;2023-05-10T00:56:25;20.10;62.70
3770;DHT22;1900;48.890;9.190;2023-05-10T00:58:52;20.10;62.50
3770;DHT22;1900;48.890;9.190;2023-05-10T01:01:21;20.00;62.40
3770;DHT22;1900;48.890;9.190;2023-05-10T01:03:47;20.00;62.50
3770;DHT22;1900;48.890;9.190;2023-05-10T01:06:15;19.90;62.30
3770;DHT22;1900;48.890;9.190;2023-05-10T01:08:41;19.90;62.40
3770;DHT22;1900;48.890;9.190;2023-05-10T01:11:07;19.80;62.40
3770;DHT22;1900;48.890;9.190;2023-05-10T01:13:38;19.80;62.40
3770;DHT22;1900;48.890;9.190;2023-05-10T01:16:05;19.80;62.50
3770;DHT22;1900;48.890;9.190;2023-05-10T01:18:37;19.80;62.70
3770;DHT22;1900;48.890;9.190;2023-05-10T01:24:11;19.80;62.70
3770;DHT22;1900;48.890;9.190;2023-05-10T01:27:02;19.70;62.50
3770;DHT22;1900;48.890;9.190;2023-05-10T01:46:50;19.60;62.90
3770;DHT22;1900;48.890;9.190;2023-05-10T01:49:28;19.60;62.80
3770;DHT22;1900;48.890;9.190;2023-05-10T01:51:59;19.60;62.80
3770;DHT22;1900;48.890;9.190;2023-05-10T01:54:27;19.60;62.70
3770;DHT22;1900;48.890;9.190;2023-05-10T01:57:01;19.50;62.50
3770;DHT22;1900;48.890;9.190;2023-05-10T01:59:34;19.50;62.60
3770;DHT22;1900;48.890;9.190;2023-05-10T02:02:11;19.50;62.60
3770;DHT22;1900;48.890;9.190;2023-05-10T02:04:38;19.50;62.50
3770;DHT22;1900;48.890;9.190;2023-05-10T02:07:06;19.40;62.50
3770;DHT22;1900;48.890;9.190;2023-05-10T02:09:37;19.40;62.50
3770;DHT22;1900;48.890;9.190;2023-05-10T02:12:05;19.40;62.60
3770;DHT22;1900;48.890;9.190;2023-05-10T02:14:35;19.40;62.60
3770;DHT22;1900;48.890;9.190;2023-05-10T02:17:03;19.40;62.70
3770;DHT22;1900;48.890;9.190;2023-05-10T02:19:30;19.40;62.70
3770;DHT22;1900;48.890;9.190;2023-05-10T02:21:58;19.40;62.80
3770;DHT22;1900;48.890;9.190;2023-05-10T02:24:25;19.40;62.80
3770;DHT22;1900;48.890;9.190;2023-05-10T02:26:53;19.40;62.80
3770;DHT22;1900;48.890;9.190;2023-05-10T02:29:23;19.40;62.90
3770;DHT22;1900;48.890;9.190;2023-05-10T02:31:51;19.40;62.90
3770;DHT22;1900;48.890;9.190;2023-05-10T02:34:22;19.40;62.90
3770;DHT22;1900;48.890;9.190;2023-05-10T02:36:49;19.40;62.90
3770;DHT22;1900;48.890;9.190;2023-05-10T02:39:18;19.40;62.80
3770;DHT22;1900;48.890;9.190;2023-05-10T02:41:46;19.40;62.90
3770;DHT22;1900;48.890;9.190;2023-05-10T02:44:15;19.40;62.70
3770;DHT22;1900;48.890;9.190;2023-05-10T02:46:41;19.40;62.70
3770;DHT22;1900;48.890;9.190;2023-05-10T02:49:07;19.40;62.80
3770;DHT22;1900;48.890;9.190;2023-05-10T02:51:35;19.40;62.90
3770;DHT22;1900;48.890;9.190;2023-05-10T02:54:07;19.40;63.00
3770;DHT22;1900;48.890;9.190;2023-05-10T02:56:36;19.40;63.10
3770;DHT22;1900;48.890;9.190;2023-05-10T02:59:09;19.40;63.00
3770;DHT22;1900;48.890;9.190;2023-05-10T03:01:37;19.40;63.10
3770;DHT22;1900;48.890;9.190;2023-05-10T03:04:06;19.40;63.10
3770;DHT22;1900;48.890;9.190;2023-05-10T03:06:31;19.40;63.10
3770;DHT22;1900;48.890;9.190;2023-05-10T03:09:00;19.40;63.10
3770;DHT22;1900;48.890;9.190;2023-05-10T03:14:37;19.40;63.00
3770;DHT22;1900;48.890;9.190;2023-05-10T03:17:29;19.40;63.00
3770;DHT22;1900;48.890;9.190;2023-05-10T03:19:58;19.40;63.10
3770;DHT22;1900;48.890;9.190;2023-05-10T03:22:32;19.40;63.10
3770;DHT22;1900;48.890;9.190;2023-05-10T03:25:00;19.40;63.10
3770;DHT22;1900;48.890;9.190;2023-05-10T03:27:32;19.40;63.20
3770;DHT22;1900;48.890;9.190;2023-05-10T03:30:00;19.40;63.20
3770;DHT22;1900;48.890;9.190;2023-05-10T03:32:29;19.40;63.20
3770;DHT22;1900;48.890;9.190;2023-05-10T03:34:57;19.40;63.20
3770;DHT22;1900;48.890;9.190;2023-05-10T03:37:24;19.40;63.20
3770;DHT22;1900;48.890;9.190;2023-05-10T03:39:49;19.40;63.20
3770;DHT22;1900;48.890;9.190;2023-05-10T03:42:15;19.50;63.30
3770;DHT22;1900;48.890;9.190;2023-05-10T03:44:43;19.50;63.30
3770;DHT22;1900;48.890;9.190;2023-05-10T03:47:09;19.50;63.30
3770;DHT22;1900;48.890;9.190;2023-05-10T03:49:34;19.50;63.30
3770;DHT22;1900;48.890;9.190;2023-05-10T03:52:02;19.50;63.30
3770;DHT22;1900;48.890;9.190;2023-05-10T03:54:31;19.50;63.30
3770;DHT22;1900;48.890;9.190;2023-05-10T03:56:58;19.50;63.30
3770;DHT22;1900;48.890;9.190;2023-05-10T03:59:23;19.50;63.30
3770;DHT22;1900;48.890;9.190;2023-05-10T04:01:51;19.50;63.20
3770;DHT22;1900;48.890;9.190;2023-05-10T04:04:16;19.50;63.20
3770;DHT22;1900;48.890;9.190;2023-05-10T04:06:44;19.50;63.30
3770;DHT22;1900;48.890;9.190;2023-05-10T04:09:10;19.50;63.30
3770;DHT22;1900;48.890;9.190;2023-05-10T04:11:36;19.50;63.30
3770;DHT22;1900;48.890;9.190;2023-05-10T04:14:02;19.50;63.30
3770;DHT22;1900;48.890;9.190;2023-05-10T04:16:27;19.50;63.40
3770;DHT22;1900;48.890;9.190;2023-05-10T04:18:53;19.50;63.40
3770;DHT22;1900;48.890;9.190;2023-05-10T04:21:19;19.50;63.40
3770;DHT22;1900;48.890;9.190;2023-05-10T04:23:45;19.50;63.40
3770;DHT22;1900;48.890;9.190;2023-05-10T04:26:10;19.50;63.50
3770;DHT22;1900;48.890;9.190;2023-05-10T04:28:36;19.50;63.40
3770;DHT22;1900;48.890;9.190;2023-05-10T04:31:06;19.50;63.40
3770;DHT22;1900;48.890;9.190;2023-05-10T04:33:32;19.50;63.50
3770;DHT22;1900;48.890;9.190;2023-05-10T04:35:58;19.50;63.50
3770;DHT22;1900;48.890;9.190;2023-05-10T04:38:24;19.60;63.60
3770;DHT22;1900;48.890;9.190;2023-05-10T04:40:53;19.50;63.50
3770;DHT22;1900;48.890;9.190;2023-05-10T04:43:19;19.50;63.50
3770;DHT22;1900;48.890;9.190;2023-05-10T04:45:45;19.60;63.60
3770;DHT22;1900;48.890;9.190;2023-05-10T04:48:11;19.60;63.60
3770;DHT22;1900;48.890;9.190;2023-05-10T04:50:37;19.60;63.60
3770;DHT22;1900;48.890;9.190;2023-05-10T04:53:02;19.60;63.60
3770;DHT22;1900;48.890;9.190;2023-05-10T04:55:28;19.60;63.60
3770;DHT22;1900;48.890;9.190;2023-05-10T04:57:54;19.60;63.60
3770;DHT22;1900;48.890;9.190;2023-05-10T05:00:24;19.60;63.60
3770;DHT22;1900;48.890;9.190;2023-05-10T05:02:50;19.60;63.60
3770;DHT22;1900;48.890;9.190;2023-05-10T05:05:15;19.60;63.60
3770;DHT22;1900;48.890;9.190;2023-05-10T05:07:41;19.60;63.70
3770;DHT22;1900;48.890;9.190;2023-05-10T05:10:07;19.60;63.70
3770;DHT22;1900;48.890;9.190;2023-05-10T05:12:34;19.60;63.70
3770;DHT22;1900;48.890;9.190;2023-05-10T05:15:00;19.60;63.70
3770;DHT22;1900;48.890;9.190;2023-05-10T05:17:25;19.60;63.70
3770;DHT22;1900;48.890;9.190;2023-05-10T05:19:54;19.60;63.70
3770;DHT22;1900;48.890;9.190;2023-05-10T05:22:20;19.60;63.80
3770;DHT22;1900;48.890;9.190;2023-05-10T05:24:53;19.60;63.80
3770;DHT22;1900;48.890;9.190;2023-05-10T05:27:25;19.60;63.80
3770;DHT22;1900;48.890;9.190;2023-05-10T05:29:53;19.70;63.90
3770;DHT22;1900;48.890;9.190;2023-05-10T05:32:19;19.70;64.00
3770;DHT22;1900;48.890;9.190;2023-05-10T05:34:45;19.70;64.00
3770;DHT22;1900;48.890;9.190;2023-05-10T05:37:19;19.70;63.90
3770;DHT22;1900;48.890;9.190;2023-05-10T05:39:48;19.70;63.90
3770;DHT22;1900;48.890;9.190;2023-05-10T05:42:14;19.70;63.90
3770;DHT22;1900;48.890;9.190;2023-05-10T05:44:41;19.70;64.00
3770;DHT22;1900;48.890;9.190;2023-05-10T05:47:10;19.70;64.00
3770;DHT22;1900;48.890;9.190;2023-05-10T05:49:36;19.70;64.10
3770;DHT22;1900;48.890;9.190;2023-05-10T05:52:02;19.70;64.00
3770;DHT22;1900;48.890;9.190;2023-05-10T05:54:29;19.70;64.10
3770;DHT22;1900;48.890;9.190;2023-05-10T05:56:59;19.80;64.30
3770;DHT22;1900;48.890;9.190;2023-05-10T05:59:28;19.80;64.30
3770;DHT22;1900;48.890;9.190;2023-05-10T06:01:56;19.80;64.30
3770;DHT22;1900;48.890;9.190;2023-05-10T06:04:22;19.80;64.30
3770;DHT22;1900;48.890;9.190;2023-05-10T06:06:48;19.80;64.20
3770;DHT22;1900;48.890;9.190;2023-05-10T06:09:14;19.80;63.90
3770;DHT22;1900;48.890;9.190;2023-05-10T06:11:40;19.80;64.00
3770;DHT22;1900;48.890;9.190;2023-05-10T06:14:05;19.80;64.00
3770;DHT22;1900;48.890;9.190;2023-05-10T06:16:33;19.80;64.10
3770;DHT22;1900;48.890;9.190;2023-05-10T06:18:59;19.80;64.20
3770;DHT22;1900;48.890;9.190;2023-05-10T06:21:25;19.80;64.30
3770;DHT22;1900;48.890;9.190;2023-05-10T06:23:59;19.80;64.20
3770;DHT22;1900;48.890;9.190;2023-05-10T06:26:25;19.90;64.40
3770;DHT22;1900;48.890;9.190;2023-05-10T06:28:51;19.90;64.50
3770;DHT22;1900;48.890;9.190;2023-05-10T06:31:16;19.90;64.60
3770;DHT22;1900;48.890;9.190;2023-05-10T06:33:42;19.90;64.70
3770;DHT22;1900;48.890;9.190;2023-05-10T06:36:11;20.00;64.80
3770;DHT22;1900;48.890;9.190;2023-05-10T06:38:39;20.00;64.80
3770;DHT22;1900;48.890;9.190;2023-05-10T06:41:05;20.00;64.70
3770;DHT22;1900;48.890;9.190;2023-05-10T06:43:31;20.00;64.80
3770;DHT22;1900;48.890;9.190;2023-05-10T06:46:00;20.00;64.50
3770;DHT22;1900;48.890;9.190;2023-05-10T06:48:28;20.10;64.60
3770;DHT22;1900;48.890;9.190;2023-05-10T06:50:54;20.10;64.70
3770;DHT22;1900;48.890;9.190;2023-05-10T06:53:22;20.10;64.80
3770;DHT22;1900;48.890;9.190;2023-05-10T06:55:49;20.10;64.80
3770;DHT22;1900;48.890;9.190;2023-05-10T06:58:15;20.20;65.00
3770;DHT22;1900;48.890;9.190;2023-05-10T07:00:41;20.20;65.10
3770;DHT22;1900;48.890;9.190;2023-05-10T07:03:10;20.20;65.10
3770;DHT22;1900;48.890;9.190;2023-05-10T07:05:38;20.20;65.10
3770;DHT22;1900;48.890;9.190;2023-05-10T07:08:04;20.30;65.10
3770;DHT22;1900;48.890;9.190;2023-05-10T07:10:30;20.30;65.10
3770;DHT22;1900;48.890;9.190;2023-05-10T07:12:56;20.30;65.10
3770;DHT22;1900;48.890;9.190;2023-05-10T07:15:21;20.40;65.30
3770;DHT22;1900;48.890;9.190;2023-05-10T07:17:48;20.40;65.10
3770;DHT22;1900;48.890;9.190;2023-05-10T07:20:13;20.40;65.10
3770;DHT22;1900;48.890;9.190;2023-05-10T07:22:39;20.40;65.20
3770;DHT22;1900;48.890;9.190;2023-05-10T07:25:08;20.50;65.30
3770;DHT22;1900;48.890;9.190;2023-05-10T07:27:34;20.50;65.40
3770;DHT22;1900;48.890;9.190;2023-05-10T07:30:00;20.50;65.30
3770;DHT22;1900;48.890;9.190;2023-05-10T07:32:28;20.60;65.30
3770;DHT22;1900;48.890;9.190;2023-05-10T07:34:54;20.60;65.30
3770;DHT22;1900;48.890;9.190;2023-05-10T07:37:22;20.60;65.30
3770;DHT22;1900;48.890;9.190;2023-05-10T07:39:48;20.60;65.30
3770;DHT22;1900;48.890;9.190;2023-05-10T07:42:14;20.70;65.50
3770;DHT22;1900;48.890;9.190;2023-05-10T07:44:39;20.70;65.50
3770;DHT22;1900;48.890;9.190;2023-05-10T07:47:08;20.70;65.50
3770;DHT22;1900;48.890;9.190;2023-05-10T07:49:43;20.80;65.60
3770;DHT22;1900;48.890;9.190;2023-05-10T07:52:08;20.70;65.40
3770;DHT22;1900;48.890;9.190;2023-05-10T07:54:34;20.80;65.30
3770;DHT22;1900;48.890;9.190;2023-05-10T07:57:00;20.80;65.10
3770;DHT22;1900;48.890;9.190;2023-05-10T07:59:26;20.80;65.00
3770;DHT22;1900;48.890;9.190;2023-05-10T08:01:52;20.80;65.00
3770;DHT22;1900;48.890;9.190;2023-05-10T08:04:17;20.70;65.00
3770;DHT22;1900;48.890;9.190;2023-05-10T08:06:43;20.80;65.30
3770;DHT22;1900;48.890;9.190;2023-05-10T08:09:11;20.80;65.30
3770;DHT22;1900;48.890;9.190;2023-05-10T08:11:37;20.80;65.30
3770;DHT22;1900;48.890;9.190;2023-05-10T08:14:02;20.90;65.40
3770;DHT22;1900;48.890;9.190;2023-05-10T08:16:30;20.90;65.30
3770;DHT22;1900;48.890;9.190;2023-05-10T08:18:57;20.90;65.30
3770;DHT22;1900;48.890;9.190;2023-05-10T08:21:26;20.90;65.30
3770;DHT22;1900;48.890;9.190;2023-05-10T08:23:52;20.90;65.20
3770;DHT22;1900;48.890;9.190;2023-05-10T08:26:17;20.90;65.00
3770;DHT22;1900;48.890;9.190;2023-05-10T08:28:49;20.90;64.90
3770;DHT22;1900;48.890;9.190;2023-05-10T08:31:15;20.90;65.00
3770;DHT22;1900;48.890;9.190;2023-05-10T08:33:44;20.90;65.00
3770;DHT22;1900;48.890;9.190;2023-05-10T08:36:12;20.90;65.40
3770;DHT22;1900;48.890;9.190;2023-05-10T08:38:39;21.00;64.90
3770;DHT22;1900;48.890;9.190;2023-05-10T08:41:05;20.90;64.80
3770;DHT22;1900;48.890;9.190;2023-05-10T08:43:31;21.00;65.00
3770;DHT22;1900;48.890;9.190;2023-05-10T08:46:00;21.00;65.00
3770;DHT22;1900;48.890;9.190;2023-05-10T08:48:29;21.00;65.00
3770;DHT22;1900;48.890;9.190;2023-05-10T08:51:00;21.00;65.10
3770;DHT22;1900;48.890;9.190;2023-05-10T08:53:31;21.00;65.00
3770;DHT22;1900;48.890;9.190;2023-05-10T08:55:58;21.00;65.00
3770;DHT22;1900;48.890;9.190;2023-05-10T08:58:25;21.00;65.10
3770;DHT22;1900;48.890;9.190;2023-05-10T09:00:53;21.10;65.10
3770;DHT22;1900;48.890;9.190;2023-05-10T09:03:19;21.10;65.20
3770;DHT22;1900;48.890;9.190;2023-05-10T09:05:45;21.10;65.30
3770;DHT22;1900;48.890;9.190;2023-05-10T09:08:11;21.20;65.20
3770;DHT22;1900;48.890;9.190;2023-05-10T09:10:39;21.20;65.00
3770;DHT22;1900;48.890;9.190;2023-05-10T09:13:08;21.20;64.90
3770;DHT22;1900;48.890;9.190;2023-05-10T09:15:35;21.20;65.00
3770;DHT22;1900;48.890;9.190;2023-05-10T09:18:01;21.20;65.10
3770;DHT22;1900;48.890;9.190;2023-05-10T09:20:27;21.20;65.30
3770;DHT22;1900;48.890;9.190;2023-05-10T09:22:53;21.30;65.20
3770;DHT22;1900;48.890;9.190;2023-05-10T09:25:19;21.30;65.30
3770;DHT22;1900;48.890;9.190;2023-05-10T09:27:48;21.30;65.20
3770;DHT22;1900;48.890;9.190;2023-05-10T09:30:24;21.40;65.30
3770;DHT22;1900;48.890;9.190;2023-05-10T09:32:54;21.40;65.30
3770;DHT22;1900;48.890;9.190;2023-05-10T09:35:21;21.50;65.60
3770;DHT22;1900;48.890;9.190;2023-05-10T09:37:52;21.50;65.70
3770;DHT22;1900;48.890;9.190;2023-05-10T09:40:24;21.60;65.70
3770;DHT22;1900;48.890;9.190;2023-05-10T09:43:00;21.60;65.80
3770;DHT22;1900;48.890;9.190;2023-05-10T09:45:28;21.70;65.80
3770;DHT22;1900;48.890;9.190;2023-05-10T09:47:54;21.80;65.90
3770;DHT22;1900;48.890;9.190;2023-05-10T09:50:20;21.80;65.80
3770;DHT22;1900;48.890;9.190;2023-05-10T09:55:21;21.90;65.50
3770;DHT22;1900;48.890;9.190;2023-05-10T09:57:59;22.00;65.60
3770;DHT22;1900;48.890;9.190;2023-05-10T10:00:25;22.00;65.60
3770;DHT22;1900;48.890;9.190;2023-05-10T10:03:00;22.00;65.70
3770;DHT22;1900;48.890;9.190;2023-05-10T10:05:32;22.10;65.60
3770;DHT22;1900;48.890;9.190;2023-05-10T10:07:59;22.10;65.40
3770;DHT22;1900;48.890;9.190;2023-05-10T10:10:27;22.10;65.30
3770;DHT22;1900;48.890;9.190;2023-05-10T10:12:53;22.10;65.40
3770;DHT22;1900;48.890;9.190;2023-05-10T10:15:20;22.10;65.50
3770;DHT22;1900;48.890;9.190;2023-05-10T10:17:46;22.10;65.50
3770;DHT22;1900;48.890;9.190;2023-05-10T10:20:14;22.20;65.60
3770;DHT22;1900;48.890;9.190;2023-05-10T10:22:40;22.20;65.40
3770;DHT22;1900;48.890;9.190;2023-05-10T10:25:14;22.20;65.20
3770;DHT22;1900;48.890;9.190;2023-05-10T10:35:59;22.10;64.70
3770;DHT22;1900;48.890;9.190;2023-05-10T10:38:36;22.10;64.70
3770;DHT22;1900;48.890;9.190;2023-05-10T10:41:33;22.10;64.60
3770;DHT22;1900;48.890;9.190;2023-05-10T10:49:50;22.10;64.40
3770;DHT22;1900;48.890;9.190;2023-05-10T10:52:25;22.10;64.80
3770;DHT22;1900;48.890;9.190;2023-05-10T10:55:19;22.10;64.60
3770;DHT22;1900;48.890;9.190;2023-05-10T10:57:53;22.10;64.70
3770;DHT22;1900;48.890;9.190;2023-05-10T11:02:58;22.20;64.50
3770;DHT22;1900;48.890;9.190;2023-05-10T11:08:16;22.20;64.60
3770;DHT22;1900;48.890;9.190;2023-05-10T11:10:52;22.20;63.80
3770;DHT22;1900;48.890;9.190;2023-05-10T11:13:27;22.20;63.30
3770;DHT22;1900;48.890;9.190;2023-05-10T11:15:54;22.10;63.30
3770;DHT22;1900;48.890;9.190;2023-05-10T11:18:29;22.10;63.20
3770;DHT22;1900;48.890;9.190;2023-05-10T11:21:00;22.00;63.20
3770;DHT22;1900;48.890;9.190;2023-05-10T11:26:15;22.00;63.50
3770;DHT22;1900;48.890;9.190;2023-05-10T11:28:45;22.00;63.30
3770;DHT22;1900;48.890;9.190;2023-05-10T11:31:14;22.00;63.30
3770;DHT22;1900;48.890;9.190;2023-05-10T11:33:59;22.00;63.50
3770;DHT22;1900;48.890;9.190;2023-05-10T11:36:32;22.00;63.50
3770;DHT22;1900;48.890;9.190;2023-05-10T11:38:58;22.00;63.50
3770;DHT22;1900;48.890;9.190;2023-05-10T11:41:25;22.00;63.60
3770;DHT22;1900;48.890;9.190;2023-05-10T11:43:54;22.10;63.90
3770;DHT22;1900;48.890;9.190;2023-05-10T11:46:25;22.10;64.00
3770;DHT22;1900;48.890;9.190;2023-05-10T11:48:57;22.10;63.80
3770;DHT22;1900;48.890;9.190;2023-05-10T11:51:24;22.20;63.70
3770;DHT22;1900;48.890;9.190;2023-05-10T11:53:53;22.20;63.80
3770;DHT22;1900;48.890;9.190;2023-05-10T11:56:18;22.20;63.70
3770;DHT22;1900;48.890;9.190;2023-05-10T11:58:57;22.20;63.50
3770;DHT22;1900;48.890;9.190;2023-05-10T12:01:24;22.30;63.70
3770;DHT22;1900;48.890;9.190;2023-05-10T12:03:51;22.30;63.80
3770;DHT22;1900;48.890;9.190;2023-05-10T12:06:19;22.30;63.90
3770;DHT22;1900;48.890;9.190;2023-05-10T12:08:46;22.30;64.00
3770;DHT22;1900;48.890;9.190;2023-05-10T12:11:14;22.40;63.90
3770;DHT22;1900;48.890;9.190;2023-05-10T12:13:42;22.40;63.60
3770;DHT22;1900;48.890;9.190;2023-05-10T12:16:27;22.40;63.40
3770;DHT22;1900;48.890;9.190;2023-05-10T12:19:00;22.40;63.40
3770;DHT22;1900;48.890;9.190;2023-05-10T12:21:28;22.40;63.20
3770;DHT22;1900;48.890;9.190;2023-05-10T12:23:58;22.30;62.90
3770;DHT22;1900;48.890;9.190;2023-05-10T12:26:25;22.30;63.00
3770;DHT22;1900;48.890;9.190;2023-05-10T12:28:53;22.30;62.90
3770;DHT22;1900;48.890;9.190;2023-05-10T12:31:22;22.30;62.60
3770;DHT22;1900;48.890;9.190;2023-05-10T12:33:47;22.30;62.50
3770;DHT22;1900;48.890;9.190;2023-05-10T12:36:23;22.20;62.40
3770;DHT22;1900;48.890;9.190;2023-05-10T12:38:49;22.20;62.50
3770;DHT22;1900;48.890;9.190;2023-05-10T12:41:19;22.20;62.60
3770;DHT22;1900;48.890;9.190;2023-05-10T12:43:45;22.20;62.60
3770;DHT22;1900;48.890;9.190;2023-05-10T12:46:16;22.10;62.70
3770;DHT22;1900;48.890;9.190;2023-05-10T12:48:43;22.20;62.90
3770;DHT22;1900;48.890;9.190;2023-05-10T12:51:09;22.20;63.00
3770;DHT22;1900;48.890;9.190;2023-05-10T12:53:40;22.20;63.00
3770;DHT22;1900;48.890;9.190;2023-05-10T12:56:06;22.20;63.00
3770;DHT22;1900;48.890;9.190;2023-05-10T12:58:32;22.30;63.10
3770;DHT22;1900;48.890;9.190;2023-05-10T13:00:59;22.30;62.90
3770;DHT22;1900;48.890;9.190;2023-05-10T13:03:25;22.30;62.90
3770;DHT22;1900;48.890;9.190;2023-05-10T13:05:51;22.30;63.00
3770;DHT22;1900;48.890;9.190;2023-05-10T13:08:17;22.30;62.80
3770;DHT22;1900;48.890;9.190;2023-05-10T13:10:43;22.30;62.90
3770;DHT22;1900;48.890;9.190;2023-05-10T13:13:15;22.40;63.10
3770;DHT22;1900;48.890;9.190;2023-05-10T13:15:40;22.40;62.30
3770;DHT22;1900;48.890;9.190;2023-05-10T13:18:06;22.40;62.50
3770;DHT22;1900;48.890;9.190;2023-05-10T13:20:32;22.40;62.20
3770;DHT22;1900;48.890;9.190;2023-05-10T13:22:57;22.40;62.40
3770;DHT22;1900;48.890;9.190;2023-05-10T13:25:23;22.40;62.30
3770;DHT22;1900;48.890;9.190;2023-05-10T13:27:49;22.40;62.40
3770;DHT22;1900;48.890;9.190;2023-05-10T13:30:17;22.40;62.50
3770;DHT22;1900;48.890;9.190;2023-05-10T13:32:43;22.40;62.60
3770;DHT22;1900;48.890;9.190;2023-05-10T13:35:09;22.40;62.70
3770;DHT22;1900;48.890;9.190;2023-05-10T13:37:35;22.40;62.70
3770;DHT22;1900;48.890;9.190;2023-05-10T13:40:03;22.40;62.80
3770;DHT22;1900;48.890;9.190;2023-05-10T13:42:29;22.50;62.90
3770;DHT22;1900;48.890;9.190;2023-05-10T13:44:55;22.50;62.60
3770;DHT22;1900;48.890;9.190;2023-05-10T13:47:21;22.50;62.50
3770;DHT22;1900;48.890;9.190;2023-05-10T13:49:47;22.50;62.40
3770;DHT22;1900;48.890;9.190;2023-05-10T13:52:13;22.50;62.40
3770;DHT22;1900;48.890;9.190;2023-05-10T13:54:39;22.50;62.50
3770;DHT22;1900;48.890;9.190;2023-05-10T13:57:05;22.50;62.30
3770;DHT22;1900;48.890;9.190;2023-05-10T13:59:33;22.50;62.30
3770;DHT22;1900;48.890;9.190;2023-05-10T14:01:59;22.50;62.40
3770;DHT22;1900;48.890;9.190;2023-05-10T14:04:30;22.50;62.40
3770;DHT22;1900;48.890;9.190;2023-05-10T14:07:03;22.50;62.50
3770;DHT22;1900;48.890;9.190;2023-05-10T14:09:29;22.50;62.70
3770;DHT22;1900;48.890;9.190;2023-05-10T14:11:55;22.50;62.50
3770;DHT22;1900;48.890;9.190;2023-05-10T14:14:21;22.50;62.50
3770;DHT22;1900;48.890;9.190;2023-05-10T14:16:47;22.50;62.60
3770;DHT22;1900;48.890;9.190;2023-05-10T14:19:13;22.50;62.30
3770;DHT22;1900;48.890;9.190;2023-05-10T14:21:38;22.50;62.10
3770;DHT22;1900;48.890;9.190;2023-05-10T14:24:06;22.50;62.10
3770;DHT22;1900;48.890;9.190;2023-05-10T14:26:32;22.50;61.80
3770;DHT22;1900;48.890;9.190;2023-05-10T14:28:59;22.50;61.70
3770;DHT22;1900;48.890;9.190;2023-05-10T14:31:25;22.50;61.50
3770;DHT22;1900;48.890;9.190;2023-05-10T14:33:54;22.40;61.20
3770;DHT22;1900;48.890;9.190;2023-05-10T14:36:25;22.40;61.30
3770;DHT22;1900;48.890;9.190;2023-05-10T14:38:51;22.40;61.50
3770;DHT22;1900;48.890;9.190;2023-05-10T14:41:17;22.40;61.70
3770;DHT22;1900;48.890;9.190;2023-05-10T14:43:43;22.40;61.80
3770;DHT22;1900;48.890;9.190;2023-05-10T14:46:09;22.40;61.80
3770;DHT22;1900;48.890;9.190;2023-05-10T14:48:34;22.40;61.70
3770;DHT22;1900;48.890;9.190;2023-05-10T14:51:00;22.40;61.70
3770;DHT22;1900;48.890;9.190;2023-05-10T14:53:26;22.40;61.80
3770;DHT22;1900;48.890;9.190;2023-05-10T14:55:51;22.40;61.90
3770;DHT22;1900;48.890;9.190;2023-05-10T14:58:17;22.40;61.70
3770;DHT22;1900;48.890;9.190;2023-05-10T15:00:43;22.50;61.60
3770;DHT22;1900;48.890;9.190;2023-05-10T15:03:09;22.40;61.40
3770;DHT22;1900;48.890;9.190;2023-05-10T15:05:35;22.40;61.40
3770;DHT22;1900;48.890;9.190;2023-05-10T15:08:05;22.40;61.50
3770;DHT22;1900;48.890;9.190;2023-05-10T15:10:34;22.40;61.20
3770;DHT22;1900;48.890;9.190;2023-05-10T15:13:00;22.40;61.00
3770;DHT22;1900;48.890;9.190;2023-05-10T15:15:26;22.40;61.20
3770;DHT22;1900;48.890;9.190;2023-05-10T15:17:52;22.40;61.40
3770;DHT22;1900;48.890;9.190;2023-05-10T15:20:17;22.40;61.50
3770;DHT22;1900;48.890;9.190;2023-05-10T15:22:43;22.40;61.30
3770;DHT22;1900;48.890;9.190;2023-05-10T15:25:09;22.40;61.50
3770;DHT22;1900;48.890;9.190;2023-05-10T15:27:38;22.40;61.40
3770;DHT22;1900;48.890;9.190;2023-05-10T15:30:04;22.40;61.10
3770;DHT22;1900;48.890;9.190;2023-05-10T15:32:32;22.40;61.00
3770;DHT22;1900;48.890;9.190;2023-05-10T15:35:01;22.40;61.20
3770;DHT22;1900;48.890;9.190;2023-05-10T15:37:27;22.40;61.20
3770;DHT22;1900;48.890;9.190;2023-05-10T15:39:53;22.40;61.30
3770;DHT22;1900;48.890;9.190;2023-05-10T15:42:19;22.40;61.30
3770;DHT22;1900;48.890;9.190;2023-05-10T15:44:45;22.40;61.30
3770;DHT22;1900;48.890;9.190;2023-05-10T15:47:15;22.40;61.40
3770;DHT22;1900;48.890;9.190;2023-05-10T15:49:41;22.40;61.30
3770;DHT22;1900;48.890;9.190;2023-05-10T15:52:06;22.40;61.30
3770;DHT22;1900;48.890;9.190;2023-05-10T15:54:32;22.50;61.30
3770;DHT22;1900;48.890;9.190;2023-05-10T15:56:58;22.50;61.40
3770;DHT22;1900;48.890;9.190;2023-05-10T15:59:24;22.50;61.50
3770;DHT22;1900;48.890;9.190;2023-05-10T16:01:53;22.50;61.50
3770;DHT22;1900;48.890;9.190;2023-05-10T16:04:19;22.50;61.10
3770;DHT22;1900;48.890;9.190;2023-05-10T16:06:45;22.50;60.40
3770;DHT22;1900;48.890;9.190;2023-05-10T16:09:11;22.50;60.30
3770;DHT22;1900;48.890;9.190;2023-05-10T16:11:36;22.40;60.30
3770;DHT22;1900;48.890;9.190;2023-05-10T16:14:02;22.40;60.50
3770;DHT22;1900;48.890;9.190;2023-05-10T16:16:28;22.40;60.60
3770;DHT22;1900;48.890;9.190;2023-05-10T16:18:53;22.40;60.70
3770;DHT22;1900;48.890;9.190;2023-05-10T16:21:19;22.40;60.70
3770;DHT22;1900;48.890;9.190;2023-05-10T16:23:45;22.40;60.40
3770;DHT22;1900;48.890;9.190;2023-05-10T16:26:14;22.40;60.30
3770;DHT22;1900;48.890;9.190;2023-05-10T16:28:39;22.30;60.30
3770;DHT22;1900;48.890;9.190;2023-05-10T16:31:08;22.30;60.40
3770;DHT22;1900;48.890;9.190;2023-05-10T16:33:34;22.30;60.50
3770;DHT22;1900;48.890;9.190;2023-05-10T16:36:00;22.30;60.40
3770;DHT22;1900;48.890;9.190;2023-05-10T16:38:28;22.30;60.40
3770;DHT22;1900;48.890;9.190;2023-05-10T16:40:54;22.30;60.10
3770;DHT22;1900;48.890;9.190;2023-05-10T16:43:24;22.20;59.70
3770;DHT22;1900;48.890;9.190;2023-05-10T16:45:50;22.20;59.90
3770;DHT22;1900;48.890;9.190;2023-05-10T16:48:18;22.20;59.80
3770;DHT22;1900;48.890;9.190;2023-05-10T16:50:44;22.10;59.70
3770;DHT22;1900;48.890;9.190;2023-05-10T16:53:10;22.10;59.30